createdAt,value
2019-05-01T00:01:00.898Z,9.53
2019-05-01T00:03:36.411Z,8.80
2019-05-01T00:06:09.305Z,9.03
2019-05-01T00:08:40.078Z,9.73
2019-05-01T00:11:10.863Z,9.70
2019-05-01T00:13:41.627Z,9.13
2019-05-01T00:16:13.077Z,9.50
2019-05-01T00:18:43.854Z,9.40
2019-05-01T00:21:14.984Z,8.93
2019-05-01T00:23:45.753Z,9.25
2019-05-01T00:26:16.512Z,9.90
2019-05-01T00:28:47.299Z,9.70
2019-05-01T00:31:18.343Z,9.00
2019-05-01T00:33:49.258Z,8.28
2019-05-01T00:36:20.043Z,9.17
2019-05-01T00:38:50.814Z,9.30
2019-05-01T00:41:21.601Z,9.60
2019-05-01T00:43:52.386Z,9.40
2019-05-01T00:46:23.149Z,8.93
2019-05-01T00:48:53.942Z,8.77
2019-05-01T00:51:24.734Z,8.40
2019-05-01T00:53:55.500Z,8.37
2019-05-01T00:56:46.306Z,9.10
2019-05-01T00:59:24.750Z,8.63
2019-05-01T01:02:03.076Z,8.28
2019-05-01T01:04:33.868Z,8.95
2019-05-01T01:07:04.696Z,9.73
2019-05-01T01:09:35.453Z,8.33
2019-05-01T01:12:06.223Z,8.87
2019-05-01T01:14:37.010Z,8.60
2019-05-01T01:17:07.793Z,8.93
2019-05-01T01:19:38.573Z,8.60
2019-05-01T01:22:09.335Z,8.70
2019-05-01T01:24:40.107Z,9.30
2019-05-01T01:27:10.975Z,9.33
2019-05-01T01:29:41.890Z,8.23
2019-05-01T01:32:12.690Z,9.50
2019-05-01T01:34:43.658Z,9.10
2019-05-01T01:37:14.426Z,8.33
2019-05-01T01:39:45.407Z,8.93
2019-05-01T01:42:16.275Z,8.53
2019-05-01T01:44:55.046Z,8.63
2019-05-01T01:47:26.103Z,8.35
2019-05-01T01:49:56.993Z,8.70
2019-05-01T01:52:27.766Z,8.50
2019-05-01T01:54:58.651Z,8.80
2019-05-01T01:57:29.716Z,7.87
2019-05-01T02:00:00.613Z,8.23
2019-05-01T02:02:33.285Z,8.50
2019-05-01T02:05:09.444Z,8.23
2019-05-01T02:07:40.325Z,8.15
2019-05-01T02:10:11.437Z,8.13
2019-05-01T02:12:42.385Z,8.28
2019-05-01T02:15:13.461Z,7.87
2019-05-01T02:17:44.239Z,8.60
2019-05-01T02:20:15.224Z,8.40
2019-05-01T02:22:45.979Z,8.83
2019-05-01T02:25:17.058Z,8.30
2019-05-01T02:27:52.542Z,8.25
2019-05-01T02:30:23.841Z,8.70
2019-05-01T02:32:54.698Z,7.70
2019-05-01T02:35:25.525Z,8.20
2019-05-01T02:37:56.784Z,8.83
2019-05-01T02:40:43.510Z,8.88
2019-05-01T02:43:16.624Z,8.20
2019-05-01T02:45:51.200Z,7.75
2019-05-01T02:48:21.989Z,8.68
2019-05-01T02:50:55.642Z,8.83
2019-05-01T02:53:26.627Z,9.28
2019-05-01T02:56:16.203Z,8.23
2019-05-01T02:58:48.888Z,8.38
2019-05-01T03:01:19.961Z,7.70
2019-05-01T03:03:51.551Z,8.18
2019-05-01T03:06:22.533Z,7.75
2019-05-01T03:08:54.508Z,8.13
2019-05-01T03:11:26.477Z,8.30
2019-05-01T03:13:59.171Z,8.08
2019-05-01T03:16:31.785Z,8.73
2019-05-01T03:19:04.824Z,9.35
2019-05-01T03:21:37.549Z,8.88
2019-05-01T03:24:13.772Z,8.35
2019-05-01T03:26:44.676Z,9.05
2019-05-01T03:29:15.438Z,8.90
2019-05-01T03:32:13.295Z,8.93
2019-05-01T03:34:19.097Z,8.65
2019-05-01T03:36:50.091Z,8.70
2019-05-01T03:39:21.459Z,8.30
2019-05-01T03:41:52.460Z,8.90
2019-05-01T03:44:23.246Z,8.03
2019-05-01T03:46:54.138Z,10.00
2019-05-01T03:49:25.201Z,8.53
2019-05-01T03:51:56.497Z,9.08
2019-05-01T03:54:27.592Z,8.73
2019-05-01T03:56:58.486Z,9.10
2019-05-01T03:59:29.249Z,9.33
2019-05-01T04:02:31.609Z,8.80
2019-05-01T04:04:46.916Z,8.58
2019-05-01T04:07:17.889Z,8.70
2019-05-01T04:09:48.671Z,8.97
2019-05-01T04:12:19.442Z,9.30
2019-05-01T04:14:50.414Z,8.93
2019-05-01T04:17:23.091Z,8.70
2019-05-01T04:19:53.867Z,8.60
2019-05-01T04:22:24.865Z,8.93
2019-05-01T04:24:55.635Z,9.10
2019-05-01T04:27:28.514Z,8.60
2019-05-01T04:30:01.203Z,9.00
2019-05-01T04:32:49.999Z,9.45
2019-05-01T04:35:22.819Z,8.70
2019-05-01T04:37:54.121Z,10.38
2019-05-01T04:40:24.910Z,10.05
2019-05-01T04:42:56.168Z,10.03
2019-05-01T04:45:27.243Z,10.50
2019-05-01T04:47:58.034Z,9.43
2019-05-01T04:50:28.904Z,9.83
2019-05-01T04:52:59.708Z,8.93
2019-05-01T04:55:30.656Z,9.20
2019-05-01T04:58:01.456Z,9.80
2019-05-01T05:00:32.725Z,9.23
2019-05-01T05:03:08.419Z,9.38
2019-05-01T05:05:39.193Z,8.95
2019-05-01T05:08:10.078Z,9.37
2019-05-01T05:10:40.939Z,9.17
2019-05-01T05:13:32.029Z,9.60
2019-05-01T05:16:05.013Z,10.03
2019-05-01T05:18:36.123Z,9.08
2019-05-01T05:21:06.989Z,9.98
2019-05-01T05:23:37.976Z,10.03
2019-05-01T05:26:09.699Z,9.93
2019-05-01T05:28:41.785Z,9.50
2019-05-01T05:31:12.949Z,9.25
2019-05-01T05:33:45.027Z,9.28
2019-05-01T05:36:16.006Z,9.55
2019-05-01T05:38:54.752Z,10.37
2019-05-01T05:41:25.958Z,9.93
2019-05-01T05:43:57.045Z,10.00
2019-05-01T05:46:28.224Z,10.80
2019-05-01T05:48:59.206Z,10.25
2019-05-01T05:51:42.349Z,10.00
2019-05-01T05:54:16.347Z,10.13
2019-05-01T05:56:55.498Z,9.55
2019-05-01T05:59:29.477Z,9.45
2019-05-01T06:02:03.674Z,10.35
2019-05-01T06:04:38.258Z,11.60
2019-05-01T06:07:13.047Z,10.40
2019-05-01T06:09:48.494Z,11.00
2019-05-01T06:12:21.958Z,10.45
2019-05-01T06:14:54.838Z,10.38
2019-05-01T06:17:30.734Z,11.22
2019-05-01T06:20:06.419Z,9.83
2019-05-01T06:22:56.495Z,10.93
2019-05-01T06:25:29.518Z,11.38
2019-05-01T06:28:00.314Z,11.15
2019-05-01T06:30:32.496Z,10.53
2019-05-01T06:33:04.144Z,11.73
2019-05-01T06:35:38.259Z,10.70
2019-05-01T06:38:11.427Z,11.70
2019-05-01T06:40:44.214Z,11.68
2019-05-01T06:43:28.232Z,11.12
2019-05-01T06:46:10.055Z,11.38
2019-05-01T06:49:06.899Z,10.10
2019-05-01T06:51:48.048Z,11.48
2019-05-01T06:54:18.248Z,11.60
2019-05-01T06:56:49.020Z,11.57
2019-05-01T06:59:20.444Z,12.07
2019-05-01T07:01:53.087Z,12.55
2019-05-01T07:04:24.821Z,11.70
2019-05-01T07:06:56.712Z,12.40
2019-05-01T07:09:28.442Z,11.37
2019-05-01T07:12:00.934Z,12.53
2019-05-01T07:14:40.941Z,11.03
2019-05-01T07:17:14.860Z,11.97
2019-05-01T07:19:56.796Z,12.93
2019-05-01T07:22:30.041Z,13.13
2019-05-01T07:25:05.292Z,13.70
2019-05-01T07:27:36.134Z,13.60
2019-05-01T07:30:09.523Z,13.83
2019-05-01T07:32:41.205Z,14.77
2019-05-01T07:35:13.113Z,14.87
2019-05-01T07:37:43.960Z,15.10
2019-05-01T07:40:15.157Z,16.70
2019-05-01T07:42:50.574Z,16.10
2019-05-01T07:45:26.619Z,16.90
2019-05-01T07:48:00.964Z,18.80
2019-05-01T07:50:32.703Z,20.20
2019-05-01T07:53:04.304Z,19.30
2019-05-01T07:55:35.431Z,20.53
2019-05-01T07:58:10.464Z,19.70
2019-05-01T08:00:54.404Z,20.57
2019-05-01T08:03:25.171Z,18.60
2019-05-01T08:05:55.951Z,19.30
2019-05-01T08:08:29.412Z,20.23
2019-05-01T08:11:05.339Z,21.10
2019-05-01T08:13:34.976Z,21.73
2019-05-01T08:16:07.010Z,20.60
2019-05-01T08:18:52.796Z,20.33
2019-05-01T08:21:26.209Z,20.10
2019-05-01T08:23:58.156Z,19.47
2019-05-01T08:26:28.938Z,20.47
2019-05-01T08:29:02.932Z,21.03
2019-05-01T08:31:36.225Z,22.73
2019-05-01T08:34:11.840Z,21.27
2019-05-01T08:36:47.102Z,20.53
2019-05-01T08:39:15.320Z,20.80
2019-05-01T08:41:46.095Z,20.77
2019-05-01T08:44:18.378Z,21.90
2019-05-01T08:46:53.849Z,22.17
2019-05-01T08:49:49.540Z,21.33
2019-05-01T08:52:17.659Z,22.17
2019-05-01T08:54:48.425Z,23.00
2019-05-01T08:57:19.209Z,22.20
2019-05-01T08:59:49.973Z,22.67
2019-05-01T09:02:20.747Z,21.60
2019-05-01T09:05:01.665Z,21.73
2019-05-01T09:07:24.279Z,23.00
2019-05-01T09:09:55.202Z,21.60
2019-05-01T09:12:25.973Z,22.70
2019-05-01T09:14:56.765Z,21.40
2019-05-01T09:17:27.555Z,21.00
2019-05-01T09:19:58.330Z,21.60
2019-05-01T09:22:29.346Z,21.37
2019-05-01T09:25:01.771Z,20.60
2019-05-01T09:27:40.661Z,20.63
2019-05-01T09:30:15.263Z,20.80
2019-05-01T09:32:53.903Z,21.17
2019-05-01T09:35:20.636Z,21.60
2019-05-01T09:37:51.420Z,21.90
2019-05-01T09:40:22.192Z,20.93
2019-05-01T09:42:54.623Z,21.10
2019-05-01T09:45:25.845Z,22.10
2019-05-01T09:47:56.691Z,22.50
2019-05-01T09:50:30.522Z,20.03
2019-05-01T09:53:19.318Z,21.90
2019-05-01T09:55:51.995Z,21.33
2019-05-01T09:58:22.784Z,21.83
2019-05-01T10:00:55.453Z,20.83
2019-05-01T10:03:26.242Z,22.23
2019-05-01T10:05:57.023Z,21.50
2019-05-01T10:08:27.953Z,21.37
2019-05-01T10:10:59.978Z,21.53
2019-05-01T10:13:31.420Z,22.40
2019-05-01T10:16:02.190Z,21.47
2019-05-01T10:18:32.958Z,21.70
2019-05-01T10:21:03.756Z,21.37
2019-05-01T10:23:34.543Z,22.90
2019-05-01T10:26:07.220Z,21.40
2019-05-01T10:28:50.167Z,21.73
2019-05-01T10:31:26.160Z,21.33
2019-05-01T10:34:02.823Z,21.40
2019-05-01T10:36:36.733Z,22.50
2019-05-01T10:39:07.723Z,21.63
2019-05-01T10:41:44.551Z,21.10
2019-05-01T10:44:11.195Z,21.97
2019-05-01T10:46:42.044Z,20.57
2019-05-01T10:49:12.816Z,22.87
2019-05-01T10:51:43.584Z,24.53
2019-05-01T10:54:14.369Z,22.30
2019-05-01T10:56:45.150Z,21.40
2019-05-01T10:59:16.244Z,22.30
2019-05-01T11:01:48.915Z,22.20
2019-05-01T11:04:19.906Z,22.20
2019-05-01T11:06:50.797Z,23.73
2019-05-01T11:09:21.564Z,23.30
2019-05-01T11:11:52.336Z,22.70
2019-05-01T11:14:23.216Z,22.43
2019-05-01T11:16:54.017Z,22.80
2019-05-01T11:19:24.806Z,22.10
2019-05-01T11:21:55.574Z,22.30
2019-05-01T11:24:26.394Z,22.20
2019-05-01T11:26:57.157Z,21.60
2019-05-01T11:29:27.959Z,21.67
2019-05-01T11:32:19.271Z,21.20
2019-05-01T11:34:54.628Z,21.27
2019-05-01T11:37:39.698Z,22.23
2019-05-01T11:40:15.383Z,20.70
2019-05-01T11:42:46.155Z,20.70
2019-05-01T11:45:17.140Z,21.40
2019-05-01T11:47:47.909Z,18.93
2019-05-01T11:50:18.705Z,18.63
2019-05-01T11:52:49.792Z,17.83
2019-05-01T11:55:20.853Z,18.10
2019-05-01T11:57:51.625Z,17.90
2019-05-01T12:00:22.419Z,18.40
2019-05-01T12:02:53.196Z,17.00
2019-05-01T12:05:23.983Z,16.77
2019-05-01T12:07:54.781Z,17.30
2019-05-01T12:10:25.557Z,17.40
2019-05-01T12:12:56.329Z,17.10
2019-05-01T12:15:27.123Z,17.20
2019-05-01T12:17:57.885Z,17.07
2019-05-01T12:20:28.655Z,16.80
2019-05-01T12:22:59.435Z,17.27
2019-05-01T12:25:30.450Z,19.27
2019-05-01T12:28:01.246Z,18.33
2019-05-01T12:30:32.049Z,18.33
2019-05-01T12:33:03.225Z,16.30
2019-05-01T12:35:34.013Z,16.70
2019-05-01T12:38:04.856Z,16.80
2019-05-01T12:40:35.974Z,16.93
2019-05-01T12:43:06.741Z,16.67
2019-05-01T12:45:37.517Z,17.70
2019-05-01T12:48:08.497Z,16.60
2019-05-01T12:50:39.290Z,16.90
2019-05-01T12:53:14.477Z,17.43
2019-05-01T12:55:49.937Z,16.17
2019-05-01T12:58:20.730Z,16.50
2019-05-01T13:00:55.424Z,17.17
2019-05-01T13:03:26.297Z,16.53
2019-05-01T13:05:57.110Z,16.80
2019-05-01T13:08:27.879Z,16.60
2019-05-01T13:10:59.279Z,17.53
2019-05-01T13:13:30.045Z,17.90
2019-05-01T13:16:00.822Z,17.97
2019-05-01T13:18:31.587Z,18.27
2019-05-01T13:21:02.458Z,17.10
2019-05-01T13:23:33.228Z,17.17
2019-05-01T13:26:06.007Z,18.27
2019-05-01T13:28:44.416Z,17.20
2019-05-01T13:31:17.085Z,18.30
2019-05-01T13:33:47.958Z,17.87
2019-05-01T13:36:18.784Z,18.50
2019-05-01T13:38:49.551Z,17.87
2019-05-01T13:41:20.327Z,18.60
2019-05-01T13:43:51.103Z,18.27
2019-05-01T13:46:21.904Z,19.40
2019-05-01T13:48:52.692Z,18.23
2019-05-01T13:51:23.462Z,17.63
2019-05-01T13:53:54.345Z,18.70
2019-05-01T13:56:25.166Z,17.97
2019-05-01T13:58:55.946Z,18.13
2019-05-01T14:01:26.863Z,18.60
2019-05-01T14:03:57.636Z,18.23
2019-05-01T14:06:28.411Z,17.93
2019-05-01T14:08:59.993Z,18.10
2019-05-01T14:11:30.761Z,19.03
2019-05-01T14:14:01.535Z,18.33
2019-05-01T14:16:32.293Z,17.70
2019-05-01T14:19:03.381Z,19.00
2019-05-01T14:21:39.116Z,18.27
2019-05-01T14:24:11.790Z,17.80
2019-05-01T14:26:42.558Z,18.00
2019-05-01T14:29:13.346Z,17.60
2019-05-01T14:31:44.092Z,18.23
2019-05-01T14:34:14.915Z,18.23
2019-05-01T14:36:45.680Z,19.27
2019-05-01T14:39:16.459Z,18.80
2019-05-01T14:41:47.226Z,19.20
2019-05-01T14:44:18.227Z,18.93
2019-05-01T14:46:48.998Z,18.20
2019-05-01T14:49:19.854Z,19.50
2019-05-01T14:51:50.693Z,18.73
2019-05-01T14:54:21.483Z,17.93
2019-05-01T14:56:52.246Z,18.83
2019-05-01T14:59:23.037Z,19.70
2019-05-01T15:01:53.805Z,19.53
2019-05-01T15:04:24.649Z,17.17
2019-05-01T15:06:55.458Z,17.60
2019-05-01T15:09:26.231Z,18.37
2019-05-01T15:11:57.041Z,17.43
2019-05-01T15:14:35.614Z,16.70
2019-05-01T15:17:08.285Z,16.97
2019-05-01T15:19:49.917Z,18.07
2019-05-01T15:22:20.700Z,17.10
2019-05-01T15:24:51.477Z,16.60
2019-05-01T15:27:22.262Z,17.23
2019-05-01T15:29:53.220Z,16.63
2019-05-01T15:32:24.001Z,17.73
2019-05-01T15:34:54.771Z,17.50
2019-05-01T15:37:25.559Z,17.20
2019-05-01T15:39:58.245Z,17.97
2019-05-01T15:42:33.888Z,19.27
2019-05-01T15:45:05.159Z,18.77
2019-05-01T15:47:35.948Z,17.00
2019-05-01T15:50:07.142Z,16.40
2019-05-01T15:52:37.978Z,15.97
2019-05-01T15:55:09.445Z,14.73
2019-05-01T15:57:40.220Z,16.50
2019-05-01T16:00:13.427Z,15.53
2019-05-01T16:02:44.201Z,16.20
2019-05-01T16:05:15.183Z,17.00
2019-05-01T16:07:46.104Z,16.77
2019-05-01T16:10:18.904Z,16.20
2019-05-01T16:12:56.160Z,16.00
2019-05-01T16:15:32.223Z,16.50
2019-05-01T16:18:04.060Z,16.40
2019-05-01T16:20:34.840Z,16.80
2019-05-01T16:23:05.621Z,15.90
2019-05-01T16:25:36.393Z,15.87
2019-05-01T16:28:07.183Z,16.43
2019-05-01T16:30:37.964Z,15.40
2019-05-01T16:33:08.732Z,16.47
2019-05-01T16:35:39.525Z,15.80
2019-05-01T16:38:22.412Z,16.47
2019-05-01T16:40:49.547Z,16.37
2019-05-01T16:43:20.352Z,16.63
2019-05-01T16:45:51.108Z,16.13
2019-05-01T16:48:21.891Z,16.00
2019-05-01T16:50:52.700Z,16.80
2019-05-01T16:53:23.448Z,16.47
2019-05-01T16:55:56.137Z,16.27
2019-05-01T16:58:27.119Z,16.03
2019-05-01T17:01:04.956Z,16.13
2019-05-01T17:03:43.439Z,15.93
2019-05-01T17:06:18.917Z,15.20
2019-05-01T17:09:03.680Z,15.10
2019-05-01T17:11:34.725Z,16.40
2019-05-01T17:14:07.021Z,15.57
2019-05-01T17:16:37.976Z,15.97
2019-05-01T17:19:08.946Z,15.50
2019-05-01T17:21:40.049Z,15.30
2019-05-01T17:24:10.807Z,15.37
2019-05-01T17:26:41.684Z,16.40
2019-05-01T17:29:12.634Z,16.60
2019-05-01T17:31:43.720Z,15.30
2019-05-01T17:34:14.640Z,15.83
2019-05-01T17:36:45.841Z,15.33
2019-05-01T17:39:16.610Z,14.70
2019-05-01T17:41:47.399Z,15.50
2019-05-01T17:44:25.031Z,16.60
2019-05-01T17:46:53.175Z,15.57
2019-05-01T17:49:23.965Z,16.33
2019-05-01T17:52:00.347Z,20.00
2019-05-01T17:54:31.141Z,23.27
2019-05-01T17:57:13.282Z,18.57
2019-05-01T17:59:35.333Z,17.97
2019-05-01T18:02:23.388Z,17.50
2019-05-01T18:04:56.143Z,21.27
2019-05-01T18:07:33.052Z,31.37
2019-05-01T18:10:05.638Z,27.80
2019-05-01T18:12:36.645Z,23.33
2019-05-01T18:15:08.057Z,18.93
2019-05-01T18:17:39.120Z,20.93
2019-05-01T18:20:10.170Z,24.43
2019-05-01T18:22:51.927Z,26.33
2019-05-01T18:25:33.078Z,22.37
2019-05-01T18:28:12.134Z,19.87
2019-05-01T18:30:44.103Z,18.40
2019-05-01T18:33:15.045Z,18.67
2019-05-01T18:35:55.090Z,18.10
2019-05-01T18:38:30.962Z,18.27
2019-05-01T18:41:04.358Z,19.40
2019-05-01T18:43:36.114Z,19.63
2019-05-01T18:46:08.790Z,18.27
2019-05-01T18:48:39.690Z,19.27
2019-05-01T18:51:10.553Z,18.30
2019-05-01T18:53:41.612Z,19.10
2019-05-01T18:56:12.397Z,20.80
2019-05-01T18:58:43.464Z,21.80
2019-05-01T19:01:14.236Z,21.23
2019-05-01T19:03:45.147Z,20.10
2019-05-01T19:06:16.126Z,22.70
2019-05-01T19:08:47.376Z,22.23
2019-05-01T19:11:18.312Z,19.80
2019-05-01T19:13:49.142Z,19.70
2019-05-01T19:16:19.968Z,20.77
2019-05-01T19:18:50.860Z,17.90
2019-05-01T19:21:23.821Z,19.37
2019-05-01T19:24:00.611Z,19.37
2019-05-01T19:26:28.063Z,19.40
2019-05-01T19:28:59.126Z,19.03
2019-05-01T19:31:30.024Z,17.70
2019-05-01T19:34:00.961Z,18.80
2019-05-01T19:36:31.816Z,17.43
2019-05-01T19:39:06.846Z,18.10
2019-05-01T19:41:37.992Z,16.97
2019-05-01T19:44:08.824Z,19.27
2019-05-01T19:46:39.607Z,18.13
2019-05-01T19:49:10.410Z,17.47
2019-05-01T19:51:41.185Z,19.17
2019-05-01T19:54:12.221Z,18.33
2019-05-01T19:56:43.004Z,18.30
2019-05-01T19:59:13.798Z,18.50
2019-05-01T20:01:49.111Z,18.57
2019-05-01T20:04:17.373Z,20.83
2019-05-01T20:06:48.117Z,21.50
2019-05-01T20:09:19.353Z,20.83
2019-05-01T20:11:50.153Z,23.50
2019-05-01T20:14:21.001Z,24.17
2019-05-01T20:16:51.884Z,24.10
2019-05-01T20:19:22.964Z,25.47
2019-05-01T20:21:54.191Z,24.17
2019-05-01T20:24:25.148Z,26.30
2019-05-01T20:26:55.927Z,25.83
2019-05-01T20:29:27.498Z,26.40
2019-05-01T20:31:58.909Z,23.50
2019-05-01T20:34:29.703Z,24.70
2019-05-01T20:37:00.480Z,24.63
2019-05-01T20:39:31.287Z,24.13
2019-05-01T20:42:02.545Z,24.03
2019-05-01T20:44:33.354Z,22.90
2019-05-01T20:47:04.151Z,22.73
2019-05-01T20:49:36.563Z,23.20
2019-05-01T20:52:07.750Z,23.30
2019-05-01T20:54:38.526Z,22.80
2019-05-01T20:57:13.592Z,22.90
2019-05-01T20:59:44.392Z,23.90
2019-05-01T21:02:15.293Z,23.90
2019-05-01T21:04:53.815Z,24.57
2019-05-01T21:07:29.734Z,23.80
2019-05-01T21:10:02.256Z,23.30
2019-05-01T21:12:33.056Z,24.33
2019-05-01T21:15:05.196Z,22.80
2019-05-01T21:17:36.095Z,25.53
2019-05-01T21:20:07.084Z,30.90
2019-05-01T21:22:37.894Z,26.60
2019-05-01T21:25:08.857Z,26.57
2019-05-01T21:27:39.752Z,27.00
2019-05-01T21:30:10.805Z,25.73
2019-05-01T21:32:41.725Z,25.33
2019-05-01T21:35:13.732Z,23.17
2019-05-01T21:37:44.598Z,23.50
2019-05-01T21:40:15.438Z,25.87
2019-05-01T21:42:47.445Z,24.67
2019-05-01T21:45:19.058Z,25.50
2019-05-01T21:47:49.843Z,25.33
2019-05-01T21:50:22.847Z,23.53
2019-05-01T21:52:53.822Z,24.00
2019-05-01T21:55:30.201Z,27.87
2019-05-01T21:57:58.759Z,23.90
2019-05-01T22:00:31.431Z,25.60
2019-05-01T22:03:02.708Z,25.80
2019-05-01T22:05:34.655Z,27.87
2019-05-01T22:08:07.099Z,24.73
2019-05-01T22:10:50.787Z,24.77
2019-05-01T22:13:10.997Z,22.05
2019-05-01T22:15:52.907Z,21.17
2019-05-01T22:18:28.393Z,21.77
2019-05-01T22:21:01.083Z,22.20
2019-05-01T22:25:15.221Z,21.27
2019-05-01T22:28:27.975Z,22.30
2019-05-01T22:31:16.730Z,21.95
2019-05-01T22:33:50.360Z,20.55
2019-05-01T22:36:21.193Z,22.23
2019-05-01T22:38:52.017Z,21.23
2019-05-01T22:41:22.820Z,22.30
2019-05-01T22:43:53.712Z,22.17
2019-05-01T22:46:27.263Z,21.20
2019-05-01T22:48:58.034Z,21.43
2019-05-01T22:51:28.837Z,22.80
2019-05-01T22:53:59.593Z,23.37
2019-05-01T22:56:30.412Z,21.00
2019-05-01T22:59:01.616Z,23.90
2019-05-01T23:01:32.551Z,25.63
2019-05-01T23:04:04.978Z,23.70
2019-05-01T23:06:37.215Z,22.80
2019-05-01T23:09:10.111Z,22.30
2019-05-01T23:11:43.415Z,21.25
2019-05-01T23:14:14.622Z,21.90
2019-05-01T23:16:50.131Z,22.60
2019-05-01T23:19:22.921Z,22.07
2019-05-01T23:21:53.608Z,21.48
2019-05-01T23:24:24.395Z,21.13
2019-05-01T23:26:55.179Z,21.00
2019-05-01T23:29:25.979Z,22.53
2019-05-01T23:31:57.083Z,21.50
2019-05-01T23:34:28.000Z,22.73
2019-05-01T23:36:58.797Z,24.90
2019-05-01T23:39:29.566Z,26.27
2019-05-01T23:42:00.336Z,24.60
2019-05-01T23:44:31.105Z,22.80
2019-05-01T23:47:01.864Z,20.23
2019-05-01T23:49:32.643Z,23.83
2019-05-01T23:52:05.144Z,21.50
2019-05-01T23:54:36.078Z,22.05
2019-05-01T23:57:06.855Z,22.13
2019-05-01T23:59:37.612Z,22.63
